Time;durP1;ratioP1;P1;durP2;ratioP2;P2;SDS_P1;SDS_P2;PMS_P1;PMS_P2;Temp;Humidity;BMP_temperature;BMP_pressure;BME280_temperature;BME280_humidity;BME280_pressure;Samples;Min_cycle;Max_cycle;Signal;HPM_P1;HPM_P2
2021/10/25 00:01:04;;;;;;;;;;;4.10;99.90;;;2.70;100.00;96229.66;10575926;28;1855;-74
2021/10/25 00:06:07;;;;;;;;;;;4.00;99.90;;;2.63;100.00;96222.75;10562325;28;1929;-74
2021/10/25 00:11:10;;;;;;;;;;;4.10;99.90;;;2.57;100.00;96229.72;10566794;27;1938;-73
2021/10/25 00:16:13;;;;;;;;;;;3.90;99.90;;;2.54;100.00;96235.44;10553151;27;1901;-74
2021/10/25 00:21:16;;;;;;;;;;;3.80;99.90;;;2.52;100.00;96242.81;10567325;28;1906;-74
2021/10/25 00:26:19;;;;;;;;;;;3.80;99.90;;;2.52;100.00;96236.69;10566148;28;1859;-74
2021/10/25 00:31:22;;;;;;;;;;;3.80;99.90;;;2.49;100.00;96235.28;10569861;28;1929;-74
2021/10/25 00:36:25;;;;;;;;;;;3.80;99.90;;;2.46;100.00;96221.59;10567046;28;1984;-74
2021/10/25 00:41:28;;;;;;;;;;;3.80;99.90;;;2.42;100.00;96223.88;10560312;28;1970;-74
2021/10/25 00:46:31;;;;;;;;;;;3.70;99.90;;;2.39;100.00;96219.81;10567644;28;2122;-74
2021/10/25 00:51:34;;;;;;;;;;;3.70;99.90;;;2.37;100.00;96215.75;10567371;28;1912;-75
2021/10/25 00:56:37;;;;;;;;;;;3.60;99.90;;;2.34;100.00;96208.19;10566378;28;2126;-74
2021/10/25 01:01:40;;;;;;;;;;;3.60;99.90;;;2.29;100.00;96210.66;10568932;28;2015;-74
2021/10/25 01:06:43;;;;;;;;;;;3.60;99.90;;;2.29;100.00;96211.50;10560428;28;1984;-74
2021/10/25 01:11:46;;;;;;;;;;;3.50;99.90;;;2.24;100.00;96224.56;10567158;28;2124;-74
2021/10/25 01:16:57;;;;;;;;;;;3.50;99.90;;;2.15;100.00;96221.31;10547454;28;2059;-74
2021/10/25 01:22:00;;;;;;;;;;;3.50;99.90;;;2.16;100.00;96215.00;10567361;28;2083;-74
2021/10/25 01:27:23;;;;;;;;;;;3.40;99.90;;;2.20;100.00;96211.94;10571368;27;1987;-74
2021/10/25 01:32:26;;;;;;;;;;;3.50;99.90;;;2.20;100.00;96203.97;10575944;28;2062;-75
2021/10/25 01:37:29;;;;;;;;;;;3.50;99.90;;;2.16;100.00;96207.06;10600578;28;2046;-74
2021/10/25 01:42:32;;;;;;;;;;;3.50;99.90;;;2.15;100.00;96194.78;10620650;27;1616;-73
2021/10/25 01:47:35;;;;;;;;;;;3.50;99.90;;;2.12;100.00;96205.84;10624624;27;2125;-73
2021/10/25 01:52:38;;;;;;;;;;;3.50;99.90;;;2.07;100.00;96203.00;10618071;28;2077;-74
2021/10/25 01:57:41;;;;;;;;;;;3.40;99.90;;;2.07;100.00;96203.00;10578523;28;2008;-74
2021/10/25 02:02:45;;;;;;;;;;;3.40;99.90;;;2.04;100.00;96195.47;10556833;28;2007;-74
2021/10/25 02:07:48;;;;;;;;;;;3.40;99.90;;;2.03;100.00;96195.66;10578363;28;2044;-74
2021/10/25 02:12:51;;;;;;;;;;;3.30;99.90;;;1.96;100.00;96182.44;10562955;28;2306;-74
2021/10/25 02:17:54;;;;;;;;;;;3.30;99.90;;;1.91;100.00;96182.25;10580108;28;2267;-73
2021/10/25 02:22:58;;;;;;;;;;;3.20;99.90;;;1.90;100.00;96180.59;10616196;27;2334;-72
2021/10/25 02:28:01;;;;;;;;;;;3.20;99.90;;;2.02;100.00;96184.25;10614123;27;1695;-73
2021/10/25 02:33:03;;;;;;;;;;;3.20;99.90;;;2.05;100.00;96175.06;10590140;28;2237;-74
2021/10/25 02:38:07;;;;;;;;;;;3.30;99.90;;;2.05;100.00;96177.72;10563801;27;2070;-73
2021/10/25 02:43:10;;;;;;;;;;;3.30;99.90;;;2.05;100.00;96173.22;10574161;28;2051;-73
2021/10/25 02:48:14;;;;;;;;;;;3.30;99.90;;;2.05;100.00;96175.88;10573346;27;2455;-74
2021/10/25 02:53:17;;;;;;;;;;;3.20;99.90;;;2.09;100.00;96182.38;10577461;27;1913;-73
2021/10/25 02:58:20;;;;;;;;;;;3.30;99.90;;;2.09;100.00;96184.22;10571840;28;2356;-73
2021/10/25 03:03:23;;;;;;;;;;;3.30;99.90;;;2.07;100.00;96176.47;10573213;28;2158;-73
2021/10/25 03:08:26;;;;;;;;;;;3.30;99.90;;;2.04;100.00;96176.91;10567087;28;2093;-74
2021/10/25 03:13:29;;;;;;;;;;;3.20;99.90;;;2.13;100.00;96180.94;10572000;28;2089;-74
2021/10/25 03:18:32;;;;;;;;;;;3.30;99.90;;;2.19;100.00;96181.13;10568551;28;2002;-74
2021/10/25 03:23:35;;;;;;;;;;;3.30;99.90;;;2.25;100.00;96182.94;10571834;28;2034;-74
2021/10/25 03:28:38;;;;;;;;;;;3.50;99.90;;;2.19;100.00;96183.78;10568485;28;2038;-74
2021/10/25 03:33:41;;;;;;;;;;;3.40;99.90;;;2.10;100.00;96178.72;10570383;27;2074;-72
2021/10/25 03:39:03;;;;;;;;;;;3.40;99.90;;;2.10;100.00;96178.72;10572528;28;1983;-73
2021/10/25 03:44:10;;;;;;;;;;;3.30;99.90;;;2.05;100.00;96183.84;10574289;27;2023;-74
2021/10/25 03:49:17;;;;;;;;;;;3.30;99.90;;;2.01;100.00;96200.38;10570649;28;2300;-73
2021/10/25 03:54:29;;;;;;;;;;;3.30;99.90;;;2.09;100.00;96184.22;10576127;27;2015;-75
2021/10/25 04:26:29;;;;;;;;;;;3.30;99.90;;;2.02;100.00;96163.03;10554689;28;2167;-74
2021/10/25 04:31:32;;;;;;;;;;;3.20;99.90;;;2.03;100.00;96159.34;10570447;28;1975;-73
2021/10/25 04:36:35;;;;;;;;;;;3.20;99.90;;;1.96;100.00;96153.25;10567991;28;2008;-73
2021/10/25 04:41:38;;;;;;;;;;;3.20;99.90;;;1.90;100.00;96162.06;10567926;28;1964;-72
2021/10/25 04:46:41;;;;;;;;;;;3.20;99.90;;;1.83;100.00;96170.03;10564341;28;1998;-74
2021/10/25 04:51:44;;;;;;;;;;;3.10;99.90;;;1.79;100.00;96163.53;10568066;28;2047;-74
2021/10/25 04:56:47;;;;;;;;;;;3.10;99.90;;;1.71;100.00;96162.94;10568875;28;2027;-73
2021/10/25 05:01:50;;;;;;;;;;;3.10;99.90;;;1.61;100.00;96158.88;10569817;28;2079;-74
2021/10/25 05:06:53;;;;;;;;;;;2.90;99.90;;;1.59;100.00;96160.09;10577868;27;1951;-74
2021/10/25 05:11:57;;;;;;;;;;;2.90;99.90;;;1.61;100.00;96161.53;10575643;28;2015;-74
2021/10/25 05:16:59;;;;;;;;;;;2.90;99.90;;;1.66;100.00;96157.47;10576318;28;2020;-74
2021/10/25 05:22:02;;;;;;;;;;;2.90;99.90;;;1.61;100.00;96155.44;10571623;28;1976;-74
2021/10/25 05:27:06;;;;;;;;;;;2.90;99.90;;;1.63;100.00;96159.50;10575243;28;2106;-74
2021/10/25 05:32:10;;;;;;;;;;;3.10;99.90;;;1.66;100.00;96160.13;10567593;28;2155;-73
2021/10/25 05:37:12;;;;;;;;;;;2.90;99.90;;;1.67;100.00;96156.44;10565418;28;2876;-73
2021/10/25 05:42:15;;;;;;;;;;;2.90;99.90;;;1.73;100.00;96152.97;10578495;28;2414;-73
2021/10/25 05:47:18;;;;;;;;;;;2.90;99.90;;;1.76;100.00;96150.69;10574227;28;2145;-73
2021/10/25 05:52:21;;;;;;;;;;;3.00;99.90;;;1.86;100.00;96148.41;10578870;27;2359;-75
2021/10/25 05:57:25;;;;;;;;;;;3.00;99.90;;;1.95;100.00;96146.34;10571709;27;2154;-73
2021/10/25 06:02:32;;;;;;;;;;;3.10;99.90;;;2.06;100.00;96144.88;10576797;28;2095;-74
2021/10/25 06:07:35;;;;;;;;;;;3.20;99.90;;;2.14;100.00;96145.44;10554961;28;2367;-75
2021/10/25 06:12:39;;;;;;;;;;;3.30;99.90;;;2.19;100.00;96157.25;10575069;27;2232;-73
2021/10/25 06:17:51;;;;;;;;;;;3.30;99.90;;;2.37;100.00;96160.03;10569073;28;1991;-73
2021/10/25 06:22:54;;;;;;;;;;;3.50;99.90;;;2.59;100.00;96153.34;10552928;28;2006;-73
2021/10/25 06:27:57;;;;;;;;;;;3.60;99.90;;;2.76;100.00;96153.66;10566170;28;2028;-72
2021/10/25 06:33:02;;;;;;;;;;;3.80;99.90;;;2.93;100.00;96161.91;10570787;28;2090;-74
2021/10/25 06:38:09;;;;;;;;;;;3.90;99.90;;;3.03;100.00;96154.25;10571760;27;2054;-75
2021/10/25 06:43:12;;;;;;;;;;;4.00;99.90;;;3.21;100.00;96156.97;10568296;28;1884;-74
2021/10/25 06:48:15;;;;;;;;;;;4.20;99.90;;;3.40;100.00;96154.34;10569991;28;2212;-74
2021/10/25 06:53:18;;;;;;;;;;;4.30;99.90;;;3.52;100.00;96157.91;10573878;28;1909;-73
2021/10/25 06:58:21;;;;;;;;;;;4.40;99.90;;;3.77;100.00;96160.53;10572114;28;1855;-75
2021/10/25 07:03:25;;;;;;;;;;;4.60;99.90;;;4.04;100.00;96155.72;10548838;28;1959;-74
2021/10/25 07:08:29;;;;;;;;;;;4.80;99.90;;;4.35;100.00;96154.72;10569933;27;2294;-73
2021/10/25 07:13:33;;;;;;;;;;;5.00;99.90;;;4.63;99.59;96164.78;10573710;28;1974;-73
2021/10/25 07:18:43;;;;;;;;;;;5.30;99.90;;;4.98;98.11;96169.41;10567541;28;1906;-74
2021/10/25 08:01:48;;;;;;;;;;;7.80;99.90;;;7.29;79.53;96159.50;10545864;28;1969;-74
2021/10/25 08:06:59;;;;;;;;;;;7.90;99.90;;;7.74;80.83;96174.63;10568045;28;1741;-74
2021/10/25 08:12:03;;;;;;;;;;;8.10;99.90;;;7.98;79.41;96164.53;10570495;28;1728;-74
2021/10/25 08:17:08;;;;;;;;;;;8.40;99.90;;;8.28;77.24;96168.66;10553236;28;1976;-74
2021/10/25 08:22:12;;;;;;;;;;;8.70;99.90;;;8.42;73.07;96172.59;10566875;28;1982;-74
2021/10/25 08:27:15;;;;;;;;;;;8.90;99.90;;;8.74;75.10;96174.56;10567398;28;1930;-74
2021/10/25 08:32:30;;;;;;;;;;;9.20;99.90;;;9.12;72.96;96177.09;10571616;28;2133;-74
2021/10/25 08:42:53;;;;;;;;;;;9.70;99.90;;;9.30;72.43;96167.06;10579242;28;1981;-74
2021/10/25 08:47:57;;;;;;;;;;;9.90;99.90;;;9.68;71.53;96171.38;10575381;27;1933;-73
2021/10/25 08:53:00;;;;;;;;;;;10.10;99.90;;;9.70;70.48;96159.31;10583443;27;1859;-74
2021/10/25 08:58:05;;;;;;;;;;;10.20;99.90;;;9.83;69.57;96162.63;10575231;28;1918;-74
2021/10/25 09:03:08;;;;;;;;;;;10.50;99.90;;;9.86;69.15;96156.72;10570429;28;1883;-73
2021/10/25 09:08:11;;;;;;;;;;;10.50;99.90;;;10.13;70.40;96157.41;10571643;28;2332;-73
2021/10/25 09:13:16;;;;;;;;;;;10.70;99.90;;;10.09;69.57;96159.00;10576745;28;1965;-73
2021/10/25 09:18:19;;;;;;;;;;;10.80;99.90;;;10.31;66.43;96164.25;10574028;28;1914;-74
2021/10/25 09:23:22;;;;;;;;;;;10.90;99.90;;;9.97;66.52;96163.78;10577319;28;1902;-74
2021/10/25 09:28:27;;;;;;;;;;;11.00;99.90;;;10.29;66.41;96167.19;10576294;28;1713;-74
2021/10/25 09:33:35;;;;;;;;;;;11.00;99.90;;;10.61;61.17;96157.38;10571177;28;1929;-73
2021/10/25 09:38:48;;;;;;;;;;;11.20;99.90;;;10.97;61.56;96153.69;10570882;27;1914;-73
2021/10/25 09:49:17;;;;;;;;;;;11.50;99.90;;;10.75;65.31;96159.31;10530967;28;1804;-73
2021/10/25 09:54:20;;;;;;;;;;;11.60;99.90;;;10.75;64.95;96147.72;10577335;28;2004;-73
2021/10/25 09:59:32;;;;;;;;;;;11.50;99.90;;;11.23;62.29;96149.16;10571837;28;1984;-73
2021/10/25 10:04:35;;;;;;;;;;;11.80;99.90;;;11.66;62.06;96140.81;10567449;27;1874;-73
2021/10/25 10:09:38;;;;;;;;;;;12.10;99.90;;;11.67;61.81;96137.84;10578988;28;1871;-73
2021/10/25 10:14:41;;;;;;;;;;;12.30;99.90;;;11.78;61.76;96134.06;10557238;27;2012;-74
2021/10/25 10:19:44;;;;;;;;;;;12.50;99.90;;;11.78;63.22;96133.25;10562499;27;2038;-73
2021/10/25 10:24:47;;;;;;;;;;;12.50;99.90;;;11.41;63.42;96138.94;10573793;27;1941;-74
2021/10/25 10:29:49;;;;;;;;;;;12.50;99.90;;;11.70;63.26;96128.41;10574795;28;1894;-74
2021/10/25 10:34:52;;;;;;;;;;;12.50;99.90;;;12.17;61.97;96119.97;10569269;28;1917;-74
2021/10/25 10:39:55;;;;;;;;;;;12.70;99.90;;;11.79;62.21;96122.19;10572647;28;1934;-74
2021/10/25 10:45:00;;;;;;;;;;;12.80;99.90;;;11.97;61.26;96106.56;10572574;28;1855;-75
2021/10/25 10:50:04;;;;;;;;;;;12.80;99.90;;;11.98;61.77;96105.50;10569689;28;1839;-74
2021/10/25 10:55:09;;;;;;;;;;;12.90;99.90;;;11.95;61.40;96108.72;10571891;28;1913;-73
2021/10/25 11:00:12;;;;;;;;;;;13.00;99.90;;;11.75;63.57;96102.28;10570152;28;1997;-74
2021/10/25 11:05:15;;;;;;;;;;;12.80;99.90;;;11.77;62.24;96102.00;10565489;27;1882;-72
2021/10/25 11:10:18;;;;;;;;;;;12.70;99.90;;;12.04;61.86;96101.69;10568696;27;1961;-74
2021/10/25 11:15:21;;;;;;;;;;;12.70;99.90;;;12.43;60.42;96091.84;10572384;27;2180;-74
2021/10/25 11:20:24;;;;;;;;;;;13.00;99.90;;;12.42;60.00;96087.53;10555357;28;1843;-74
2021/10/25 11:25:27;;;;;;;;;;;13.20;99.90;;;12.52;59.08;96083.16;10574130;27;1831;-74
2021/10/25 11:30:30;;;;;;;;;;;13.30;99.90;;;12.31;60.78;96075.16;10568949;27;1935;-74
2021/10/25 11:35:33;;;;;;;;;;;13.30;99.90;;;12.35;60.89;96068.16;10566887;28;1953;-73
2021/10/25 11:40:38;;;;;;;;;;;13.20;99.90;;;12.10;60.85;96065.56;10568190;28;1869;-74
2021/10/25 11:45:41;;;;;;;;;;;13.20;99.90;;;12.22;61.18;96060.69;10550920;28;1896;-74
2021/10/25 11:50:44;;;;;;;;;;;13.10;99.90;;;12.37;61.26;96065.97;10566339;28;1847;-74
2021/10/25 11:55:47;;;;;;;;;;;13.10;99.90;;;12.41;61.41;96068.94;10568027;27;1984;-73
2021/10/25 12:00:52;;;;;;;;;;;13.40;99.90;;;12.79;60.30;96056.56;10571502;27;1870;-73
2021/10/25 12:05:56;;;;;;;;;;;13.40;99.90;;;12.78;60.43;96049.53;10560029;28;2232;-74
2021/10/25 12:10:59;;;;;;;;;;;13.60;99.90;;;13.08;59.02;96053.91;10572724;27;2017;-73
2021/10/25 12:16:04;;;;;;;;;;;13.70;99.90;;;13.06;58.80;96050.69;10565485;27;2076;-74
2021/10/25 12:21:07;;;;;;;;;;;13.80;99.90;;;12.44;61.31;96042.22;10566964;28;1898;-74
2021/10/25 12:26:10;;;;;;;;;;;13.60;99.90;;;12.49;61.81;96035.19;10564641;28;1882;-74
2021/10/25 12:31:13;;;;;;;;;;;13.50;99.90;;;12.29;61.97;96034.22;10572065;28;1902;-74
2021/10/25 12:36:16;;;;;;;;;;;13.40;99.90;;;12.33;62.63;96032.56;10565743;28;1949;-74
2021/10/25 12:41:19;;;;;;;;;;;13.30;99.90;;;12.03;63.21;96016.56;10566769;28;1846;-74
2021/10/25 12:46:22;;;;;;;;;;;13.30;99.90;;;11.88;63.83;96030.88;10561226;28;1952;-74
2021/10/25 12:51:25;;;;;;;;;;;13.00;99.90;;;12.13;63.07;96033.47;10569824;28;1933;-75
2021/10/25 12:56:28;;;;;;;;;;;13.00;99.90;;;12.31;62.83;96029.34;10580689;28;1922;-74
2021/10/25 13:01:31;;;;;;;;;;;13.10;99.90;;;12.31;63.45;96023.16;10596847;28;1787;-74
2021/10/25 13:06:35;;;;;;;;;;;13.20;99.90;;;12.17;63.45;96028.34;10585948;28;1764;-75
2021/10/25 13:11:38;;;;;;;;;;;13.30;99.90;;;12.17;63.41;96028.34;10569763;28;1933;-74
2021/10/25 13:16:45;;;;;;;;;;;13.30;99.90;;;12.35;63.70;96024.22;10569844;28;1913;-74
2021/10/25 13:21:49;;;;;;;;;;;13.30;99.90;;;12.23;64.62;96019.16;10570415;28;1863;-74
2021/10/25 13:26:52;;;;;;;;;;;13.10;99.90;;;12.25;64.32;96014.28;10572457;28;2080;-74
2021/10/25 13:31:55;;;;;;;;;;;13.20;99.90;;;12.27;64.36;96020.19;10577631;28;2104;-73
2021/10/25 13:36:58;;;;;;;;;;;13.20;99.90;;;12.31;64.82;96004.28;10581368;27;1909;-74
2021/10/25 13:42:01;;;;;;;;;;;13.30;99.90;;;12.01;65.00;95997.97;10607688;27;1962;-74
2021/10/25 13:47:04;;;;;;;;;;;13.20;99.90;;;11.77;65.38;96000.47;10560542;27;1894;-74
2021/10/25 13:52:07;;;;;;;;;;;13.00;99.90;;;11.81;66.38;95998.88;10577970;27;1867;-73
2021/10/25 13:57:10;;;;;;;;;;;12.80;99.90;;;11.86;66.31;95989.97;10579499;27;1889;-74
2021/10/25 14:02:14;;;;;;;;;;;12.80;99.90;;;11.46;67.99;95983.63;10555338;27;3323;-74
2021/10/25 14:07:19;;;;;;;;;;;12.70;99.90;;;11.09;69.71;95984.78;10575552;28;2299;-74
2021/10/25 14:12:25;;;;;;;;;;;12.50;99.90;;;11.29;68.76;96002.75;10572723;28;1958;-74
2021/10/25 14:17:45;;;;;;;;;;;12.30;99.90;;;11.22;69.97;96013.00;10551319;28;2318;-75
2021/10/25 14:22:48;;;;;;;;;;;12.30;99.90;;;11.21;69.36;95992.56;10571250;28;1898;-74
2021/10/25 14:27:51;;;;;;;;;;;12.30;99.90;;;10.95;71.08;95990.97;10573339;28;2193;-74
2021/10/25 14:32:54;;;;;;;;;;;12.10;99.90;;;10.76;71.82;95959.25;10551149;28;2311;-74
2021/10/25 14:37:58;;;;;;;;;;;12.00;99.90;;;10.91;71.80;95984.53;10571202;28;1976;-74
2021/10/25 14:43:03;;;;;;;;;;;11.90;99.90;;;10.97;71.39;95994.19;10573223;28;1894;-74
2021/10/25 14:48:19;;;;;;;;;;;12.00;99.90;;;10.88;71.45;95995.81;10572673;27;1945;-73
2021/10/25 14:53:27;;;;;;;;;;;11.90;99.90;;;10.61;72.70;95996.88;10579884;28;1965;-72
2021/10/25 14:58:30;;;;;;;;;;;11.80;99.90;;;10.24;75.20;95970.22;10603152;27;1965;-74
2021/10/25 15:03:33;;;;;;;;;;;11.60;99.90;;;10.32;75.70;96006.53;10599200;27;1866;-74
2021/10/25 15:08:36;;;;;;;;;;;11.50;99.90;;;10.31;75.23;95992.28;10603317;27;1852;-75
2021/10/25 15:13:39;;;;;;;;;;;11.40;99.90;;;9.97;76.99;95965.84;10603566;27;1914;-74
2021/10/25 15:18:43;;;;;;;;;;;11.20;99.90;;;9.73;78.37;95992.38;10587019;28;1957;-75
2021/10/25 15:23:46;;;;;;;;;;;11.00;99.90;;;9.69;79.43;95985.91;10581073;27;1874;-73
2021/10/25 15:28:49;;;;;;;;;;;10.90;99.90;;;9.65;79.93;96000.09;10574485;28;1949;-73
2021/10/25 15:33:52;;;;;;;;;;;10.80;99.90;;;9.66;79.41;95993.66;10555176;28;2355;-75
2021/10/25 15:39:00;;;;;;;;;;;10.80;99.90;;;9.50;81.16;96002.72;10542389;28;2128;-74
2021/10/25 15:44:03;;;;;;;;;;;10.70;99.90;;;9.32;81.95;95996.72;10574944;27;1898;-73
2021/10/25 15:49:06;;;;;;;;;;;10.60;99.90;;;9.15;83.44;96010.28;10570037;28;1764;-74
2021/10/25 15:54:09;;;;;;;;;;;10.40;99.90;;;9.05;84.96;95987.97;10566917;28;1779;-74
2021/10/25 15:59:12;;;;;;;;;;;10.30;99.90;;;8.92;85.52;95998.09;10569869;28;2254;-73
2021/10/25 16:04:15;;;;;;;;;;;10.10;99.90;;;8.76;85.64;95982.13;10568209;28;1890;-73
2021/10/25 16:09:18;;;;;;;;;;;10.00;99.90;;;8.63;87.42;95973.47;10566837;28;1917;-74
2021/10/25 16:14:21;;;;;;;;;;;9.90;99.90;;;8.49;89.44;95969.59;10569839;28;1811;-74
2021/10/25 16:19:24;;;;;;;;;;;9.70;99.90;;;8.48;89.20;95976.03;10555924;28;1985;-74
2021/10/25 16:24:27;;;;;;;;;;;9.70;99.90;;;8.39;90.62;95993.63;10552679;28;2248;-74
2021/10/25 16:29:30;;;;;;;;;;;9.60;99.90;;;8.28;92.02;96002.59;10557783;28;2065;-74
2021/10/25 16:34:33;;;;;;;;;;;9.50;99.90;;;8.14;92.92;96007.53;10557667;28;2133;-74
2021/10/25 16:39:37;;;;;;;;;;;9.40;99.90;;;8.29;91.81;96010.38;10559619;28;1965;-74
2021/10/25 16:44:41;;;;;;;;;;;9.40;99.90;;;8.25;91.73;96014.63;10557243;28;2009;-73
2021/10/25 16:49:47;;;;;;;;;;;9.40;99.90;;;8.12;93.47;96009.66;10555147;28;2383;-75
2021/10/25 17:05:38;;;;;;;;;;;9.30;99.90;;;7.90;95.99;96006.22;10571308;28;1823;-78
2021/10/25 17:10:42;;;;;;;;;;;9.10;99.90;;;7.89;96.23;96016.13;10576313;28;1875;-73
2021/10/25 17:15:45;;;;;;;;;;;9.10;99.90;;;7.78;97.52;96012.50;10567744;28;2771;-74
2021/10/25 17:20:48;;;;;;;;;;;9.00;99.90;;;7.70;97.91;96022.81;10565869;27;1985;-74
2021/10/25 17:25:51;;;;;;;;;;;8.90;99.90;;;7.67;98.36;96015.31;10570198;28;2192;-74
2021/10/25 17:30:54;;;;;;;;;;;8.80;99.90;;;7.55;99.49;96021.59;10577062;28;1890;-75
2021/10/25 17:35:57;;;;;;;;;;;8.80;99.90;;;7.61;99.77;96018.97;10572925;27;2022;-75
2021/10/25 17:41:03;;;;;;;;;;;8.70;99.90;;;7.59;99.83;96005.84;10573394;28;1971;-73
2021/10/25 17:46:06;;;;;;;;;;;8.70;99.90;;;7.50;100.00;96024.19;10563349;28;2208;-74
2021/10/25 17:51:09;;;;;;;;;;;8.70;99.90;;;7.52;100.00;96013.25;10570605;28;1938;-74
2021/10/25 17:56:13;;;;;;;;;;;8.70;99.90;;;7.50;100.00;96016.16;10569285;27;1960;-74
2021/10/25 18:01:16;;;;;;;;;;;8.60;99.90;;;7.42;100.00;96021.13;10572362;27;1843;-74
2021/10/25 18:06:19;;;;;;;;;;;8.60;99.90;;;7.40;100.00;96018.72;10567463;28;1940;-74
2021/10/25 18:11:22;;;;;;;;;;;8.50;99.90;;;7.33;100.00;96018.09;10563282;27;2298;-75
2021/10/25 18:16:25;;;;;;;;;;;8.50;99.90;;;7.29;100.00;96019.63;10571386;28;2242;-75
2021/10/25 18:21:28;;;;;;;;;;;8.50;99.90;;;7.26;100.00;96034.31;10554790;28;2067;-74
2021/10/25 18:26:32;;;;;;;;;;;8.50;99.90;;;7.15;100.00;96026.38;10574760;28;1859;-75
2021/10/25 18:31:35;;;;;;;;;;;8.40;99.90;;;7.05;100.00;96017.16;10558408;28;1824;-75
2021/10/25 18:36:38;;;;;;;;;;;8.30;99.90;;;6.96;100.00;96018.63;10554260;27;1986;-73
2021/10/25 18:41:41;;;;;;;;;;;8.20;99.90;;;6.92;100.00;96006.81;10573448;28;1975;-74
2021/10/25 18:46:44;;;;;;;;;;;8.20;99.90;;;6.89;100.00;96001.16;10570539;28;1959;-73
2021/10/25 18:51:47;;;;;;;;;;;8.10;99.90;;;6.86;100.00;95996.28;10581825;27;1911;-75
2021/10/25 18:56:50;;;;;;;;;;;8.10;99.90;;;6.74;100.00;96005.22;10576247;28;1944;-73
2021/10/25 19:01:53;;;;;;;;;;;8.00;99.90;;;6.67;100.00;96011.75;10579579;28;2011;-75
2021/10/25 19:06:56;;;;;;;;;;;7.90;99.90;;;6.64;100.00;96015.72;10582809;28;1836;-73
2021/10/25 19:11:58;;;;;;;;;;;7.90;99.90;;;6.56;100.00;96008.13;10579494;27;1953;-74
2021/10/25 19:17:16;;;;;;;;;;;7.80;99.90;;;6.51;100.00;96000.03;10570670;28;1974;-74
2021/10/25 19:22:39;;;;;;;;;;;7.70;99.90;;;6.43;100.00;95998.56;10575896;28;2503;-75
2021/10/25 19:28:02;;;;;;;;;;;7.70;99.90;;;6.35;100.00;96001.59;10570354;28;1947;-74
2021/10/25 19:33:04;;;;;;;;;;;7.60;99.90;;;6.24;100.00;96010.50;10572713;28;2028;-76
2021/10/25 19:38:07;;;;;;;;;;;7.50;99.90;;;6.17;100.00;96017.84;10556473;28;1920;-73
2021/10/25 19:43:10;;;;;;;;;;;7.40;99.90;;;6.03;100.00;96024.53;10574221;28;1878;-75
2021/10/25 19:48:13;;;;;;;;;;;7.30;99.90;;;5.99;100.00;96012.72;10565123;28;2236;-75
2021/10/25 19:53:16;;;;;;;;;;;7.30;99.90;;;5.87;100.00;96018.06;10571111;28;2149;-72
2021/10/25 19:58:19;;;;;;;;;;;7.20;99.90;;;5.78;100.00;96017.63;10570217;28;1982;-73
2021/10/25 20:03:22;;;;;;;;;;;7.10;99.90;;;5.70;100.00;96018.00;10569658;28;2391;-76
2021/10/25 20:08:31;;;;;;;;;;;7.00;99.90;;;5.63;100.00;96022.66;10560497;28;1933;-73
2021/10/25 20:13:34;;;;;;;;;;;6.90;99.90;;;5.56;100.00;96022.00;10560659;28;2019;-75
2021/10/25 20:18:40;;;;;;;;;;;6.90;99.90;;;5.51;100.00;96025.34;10557784;27;1938;-74
2021/10/25 20:23:43;;;;;;;;;;;6.80;99.90;;;5.49;100.00;96037.31;10560651;27;2281;-75
2021/10/25 20:28:46;;;;;;;;;;;6.80;99.90;;;5.47;100.00;96036.72;10567239;28;2380;-75
2021/10/25 20:33:49;;;;;;;;;;;6.70;99.90;;;5.51;100.00;96040.53;10550439;28;1799;-75
2021/10/25 20:38:52;;;;;;;;;;;6.80;99.90;;;5.63;100.00;96041.34;10566798;28;1914;-74
2021/10/25 20:43:55;;;;;;;;;;;6.80;99.90;;;5.72;100.00;96047.91;10576551;28;1918;-73
2021/10/25 20:48:58;;;;;;;;;;;6.80;99.90;;;5.77;100.00;96050.69;10569231;28;1787;-74
2021/10/25 20:54:01;;;;;;;;;;;6.90;99.90;;;5.68;100.00;96054.78;10576069;28;1811;-75
2021/10/25 20:59:04;;;;;;;;;;;6.90;99.90;;;5.53;100.00;96062.44;10571825;28;1977;-74
2021/10/25 21:04:07;;;;;;;;;;;6.80;99.90;;;5.38;100.00;96063.75;10545949;28;1529;-73
2021/10/25 21:09:10;;;;;;;;;;;6.70;99.90;;;5.29;100.00;96065.16;10569355;28;1338;-75
2021/10/25 21:14:13;;;;;;;;;;;6.60;99.90;;;5.21;100.00;96065.47;10552582;28;1589;-74
2021/10/25 21:19:16;;;;;;;;;;;6.50;99.90;;;5.19;100.00;96062.25;10565865;28;1913;-74
2021/10/25 21:24:19;;;;;;;;;;;6.50;99.90;;;5.19;100.00;96061.44;10570466;28;1377;-74
2021/10/25 21:29:22;;;;;;;;;;;6.50;99.90;;;5.14;100.00;96062.13;10569305;28;1602;-74
2021/10/25 21:34:25;;;;;;;;;;;6.40;99.90;;;5.14;100.00;96073.59;10568491;28;1328;-73
2021/10/25 21:39:27;;;;;;;;;;;6.40;99.90;;;5.22;100.00;96071.66;10563600;28;1921;-73
2021/10/25 21:44:30;;;;;;;;;;;6.40;99.90;;;5.19;100.00;96078.25;10572657;28;1279;-73
2021/10/25 21:49:34;;;;;;;;;;;6.40;99.90;;;5.18;100.00;96075.81;10556073;28;1433;-74
2021/10/25 21:54:37;;;;;;;;;;;6.40;99.90;;;5.19;100.00;96067.56;10569639;27;1877;-73
2021/10/25 21:59:40;;;;;;;;;;;6.40;99.90;;;5.21;100.00;96065.47;10574508;28;1926;-75
2021/10/25 22:04:43;;;;;;;;;;;6.40;99.90;;;5.17;100.00;96069.69;10573581;27;2073;-74
2021/10/25 22:09:46;;;;;;;;;;;6.40;99.90;;;5.10;100.00;96074.31;10571547;28;1886;-75
2021/10/25 22:14:49;;;;;;;;;;;6.30;99.90;;;4.97;100.00;96067.34;10572547;28;1953;-73
2021/10/25 22:19:52;;;;;;;;;;;6.20;99.90;;;4.85;100.00;96077.19;10568574;28;1974;-74
2021/10/25 22:24:56;;;;;;;;;;;6.20;99.90;;;4.76;100.00;96068.69;10573550;28;1936;-74
2021/10/25 22:30:00;;;;;;;;;;;6.10;99.90;;;4.66;100.00;96083.63;10575055;27;1846;-73
2021/10/25 22:35:03;;;;;;;;;;;6.00;99.90;;;4.57;100.00;96069.81;10577739;28;1385;-73
2021/10/25 22:40:06;;;;;;;;;;;5.90;99.90;;;4.43;100.00;96073.72;10554729;28;1914;-73
2021/10/25 22:45:09;;;;;;;;;;;5.80;99.90;;;4.32;100.00;96073.47;10574208;28;1248;-74
2021/10/25 22:50:12;;;;;;;;;;;5.70;99.90;;;4.33;100.00;96079.63;10573212;28;1626;-74
2021/10/25 22:55:15;;;;;;;;;;;5.60;99.90;;;4.41;100.00;96076.63;10570874;28;1653;-74
2021/10/25 23:00:18;;;;;;;;;;;5.70;99.90;;;4.35;100.00;96082.84;10575961;27;1913;-73
2021/10/25 23:05:22;;;;;;;;;;;5.70;99.90;;;4.44;100.00;96086.81;10571871;28;1898;-74
2021/10/25 23:10:25;;;;;;;;;;;5.60;99.90;;;4.35;100.00;96080.19;10566026;28;1945;-74
2021/10/25 23:15:28;;;;;;;;;;;5.60;99.90;;;4.34;100.00;96076.72;10569422;28;2050;-74
2021/10/25 23:20:31;;;;;;;;;;;5.60;99.90;;;4.37;100.00;96074.63;10567462;28;2008;-74
2021/10/25 23:25:33;;;;;;;;;;;5.60;99.90;;;4.40;100.00;96079.53;10553234;28;1877;-74
2021/10/25 23:30:37;;;;;;;;;;;5.60;99.90;;;4.37;100.00;96080.78;10578543;28;1813;-74
2021/10/25 23:35:40;;;;;;;;;;;5.60;99.90;;;4.27;100.00;96091.16;10573298;28;1425;-74
2021/10/25 23:40:42;;;;;;;;;;;5.50;99.90;;;4.17;100.00;96086.38;10569142;28;1898;-73
2021/10/25 23:45:46;;;;;;;;;;;5.50;99.90;;;4.21;100.00;96094.72;10581298;27;1866;-74
2021/10/25 23:50:49;;;;;;;;;;;5.40;99.90;;;4.20;100.00;96101.06;10569934;28;1890;-74
2021/10/25 23:55:52;;;;;;;;;;;5.40;99.90;;;4.19;100.00;96100.25;10600264;27;2019;-74
